CLASSIFICATION TEAM 25 Mil TT
home
    idracetypedateroutekmelevation (m)Pos.PETTORALEFamily NameNamescoregenderteamNAZIONALITACATEGORIAPOSIZIONECATTimeReal
    time
    Average
    km/hr
    RW25 Mil TTTT05/10/2018 07:00:00unic40,2080,0015von SkwarczinskyClemens200MRWGermanVeteran Male1/3000:59:0400:59:0440,83
    RW25 Mil TTTT05/10/2018 07:00:00unic40,2080,0021AljarallahOmar199MRWSaudiOpen Male1/2000:59:5800:59:5840,22
    RW25 Mil TTTT05/10/2018 07:00:00unic40,2080,00317PinanoAlfie198MRWFilipinoOpen Male2/2001:02:3401:02:3438,54
    RW25 Mil TTTT05/10/2018 07:00:00unic40,2080,0046Dela RosaMichael197MRWFilipinoOpen Male3/2001:02:3401:02:3438,54
    RW25 Mil TTTT05/10/2018 07:00:00unic40,2080,005203KhalilMahmoudMRWSaudiOpen Male4/2001:03:1101:03:1138,16
    RW25 Mil TTTT05/10/2018 07:00:00unic40,2080,00693ForeroYezith196MRWColombianVeteran Male2/3001:03:1201:03:1238,15
    RW25 Mil TTTT05/10/2018 07:00:00unic40,2080,00738TubangJulieto195MRWFilipinoMaster Male1/1301:03:4601:03:4637,82
    RW25 Mil TTTT05/10/2018 07:00:00unic40,2080,0084KubaJiri194MRWGermanSenior Male1/301:04:0201:04:0237,66
    RW25 Mil TTTT05/10/2018 07:00:00unic40,2080,0098MorrisDavid193MRWBritishVeteran Male3/3001:04:2901:04:2937,40
    RW25 Mil TTTT05/10/2018 07:00:00unic40,2080,001040JazaeriYamen192MRWSyrianOpen Male5/2001:04:4301:04:4337,26
    RW25 Mil TTTT05/10/2018 07:00:00unic40,2080,001124GankemaJeroen191MRWNetherlandsVeteran Male4/3001:05:0101:05:0137,09
    RW25 Mil TTTT05/10/2018 07:00:00unic40,2080,001244AlKhuwaiterRayan190MRWSaudiOpen Male6/2001:05:0301:05:0337,07
    RW25 Mil TTTT05/10/2018 07:00:00unic40,2080,0013205GrossmannManuelMRWGermanOpen Male7/2001:05:1101:05:1137,00
    RW25 Mil TTTT05/10/2018 07:00:00unic40,2080,001480ArafahAshraf189MRWSaudiOpen Male8/2001:05:1101:05:1136,99
    RW25 Mil TTTT05/10/2018 07:00:00unic40,2080,0015200AlDeyabiAbdullahMRWSaudiOpen Male9/2001:05:2201:05:2236,89
    RW25 Mil TTTT05/10/2018 07:00:00unic40,2080,001690KutbiMohammed188MRWSaudiOpen Male10/2001:05:2701:05:2736,84
    RW25 Mil TTTT05/10/2018 07:00:00unic40,2080,0017113GicanaRamil187MRWFilipinoVeteran Male5/3001:05:2901:05:2936,82
    RW25 Mil TTTT05/10/2018 07:00:00unic40,2080,001872DercoBrandon186MRWAmericanVeteran Male6/3001:05:3001:05:3036,81
    RW25 Mil TTTT05/10/2018 07:00:00unic40,2080,001931SungaJaime185MRWFilipinoMaster Male2/1301:06:0901:06:0936,46
    RW25 Mil TTTT05/10/2018 07:00:00unic40,2080,0020111AlvesCarlos184MRWAustralianVeteran Male7/3001:06:3201:06:3236,25
    RW25 Mil TTTT05/10/2018 07:00:00unic40,2080,002112McLeanJohn183MRWBritishVeteran Male8/3001:06:4301:06:4336,15
    RW25 Mil TTTT05/10/2018 07:00:00unic40,2080,002236JohnsonDavid182MRWAmericanOpen Male11/2001:07:2601:07:2635,76
    RW25 Mil TTTT05/10/2018 07:00:00unic40,2080,002373DollemanRogier181MRWNetherlandsVeteran Male9/3001:07:3801:07:3835,65
    RW25 Mil TTTT05/10/2018 07:00:00unic40,2080,002415AlBabtainAnas180MRWSaudiVeteran Male10/3001:07:4601:07:4635,59
    RW25 Mil TTTT05/10/2018 07:00:00unic40,2080,002575DiogoJoad179MRWPortugueseVeteran Male11/3001:08:2801:08:2835,22
    RW25 Mil TTTT05/10/2018 07:00:00unic40,2080,002677SkarupaTomasz178MRWItalianVeteran Male12/3001:08:3201:08:3235,18
    RW25 Mil TTTT05/10/2018 07:00:00unic40,2080,002769DetomalBernard177MRWFilipinoVeteran Male13/3001:09:2001:09:2034,78
    RW25 Mil TTTT05/10/2018 07:00:00unic40,2080,002848AlKhudhairAhmed176MRWSaudiOpen Male12/2001:09:3201:09:3234,68
    RW25 Mil TTTT05/10/2018 07:00:00unic40,2080,002920TabbalFloren Pal175MRWFilipinoOpen Male13/2001:09:3501:09:3534,66
    RW25 Mil TTTT05/10/2018 07:00:00unic40,2080,003023CalagoErwin174MRWFilipinoVeteran Male14/3001:09:3501:09:3534,65
    RW25 Mil TTTT05/10/2018 07:00:00unic40,2080,003137LandoEdoardo173MRWItalianSenior Male2/301:09:4401:09:4434,58
    RW25 Mil TTTT05/10/2018 07:00:00unic40,2080,003246CaceresMarvin172MRWFilipinoVeteran Male15/3001:09:4901:09:4934,54
    RW25 Mil TTTT05/10/2018 07:00:00unic40,2080,003339AltavasJose Cortes171MRWFilipinoVeteran Male16/3001:10:0501:10:0534,41
    RW25 Mil TTTT05/10/2018 07:00:00unic40,2080,003499WhiteAndrew170MRWCanadianVeteran Male17/3001:10:0601:10:0634,40
    RW25 Mil TTTT05/10/2018 07:00:00unic40,2080,0035123MarinasHerbert Paul169MRWFilipinoOpen Male14/2001:10:1401:10:1434,33
    RW25 Mil TTTT05/10/2018 07:00:00unic40,2080,003682ManicdaoAriel168MRWFilipinoVeteran Male18/3001:10:2301:10:2334,26
    RW25 Mil TTTT05/10/2018 07:00:00unic40,2080,003732OcaEdilberto167MRWFilipinoMaster Male3/1301:10:3701:10:3734,15
    RW25 Mil TTTT05/10/2018 07:00:00unic40,2080,003826KootPaul166MRWNetherlandsOpen Male15/2001:11:1401:11:1433,85
    RW25 Mil TTTT05/10/2018 07:00:00unic40,2080,003919SantosMarvin165MRWFilipinoOpen Male16/2001:12:2401:12:2433,30
    RW25 Mil TTTT05/10/2018 07:00:00unic40,2080,004078MaicanSorin164MRWRomaniaVeteran Male19/3001:12:2901:12:2933,27
    RW25 Mil TTTT05/10/2018 07:00:00unic40,2080,0041204GrossmannFlorianMRWGermanOpen Male17/2001:13:0901:13:0932,97
    RW25 Mil TTTT05/10/2018 07:00:00unic40,2080,004229CabritaJose Filipe163MRWPortugueseVeteran Male20/3001:13:1301:13:1332,94
    RW25 Mil TTTT05/10/2018 07:00:00unic40,2080,0043128GicanaJun162MRWFilipinoVeteran Male21/3001:13:1601:13:1632,91
    RW25 Mil TTTT05/10/2018 07:00:00unic40,2080,004433MarinasFlorie200FRWFilipinoOpen Female1/301:13:2601:13:2632,84
    RW25 Mil TTTT05/10/2018 07:00:00unic40,2080,004561GarthMichael161MRWBritishMaster Male4/1301:13:4201:13:4232,72
    RW25 Mil TTTT05/10/2018 07:00:00unic40,2080,004697MartinezDavid160MRWSpanishVeteran Male22/3001:13:4701:13:4732,68
    RW25 Mil TTTT05/10/2018 07:00:00unic40,2080,0047207NolteeCorMRWNetherlandsMaster Male5/1301:14:0201:14:0232,57
    RW25 Mil TTTT05/10/2018 07:00:00unic40,2080,004841TolentinoWilliam159MRWFilipinoMaster Male6/1301:14:3501:14:3532,33
    RW25 Mil TTTT05/10/2018 07:00:00unic40,2080,004956WilliamsAnthony158MRWBritishMaster Male7/1301:15:2701:15:2731,96
    RW25 Mil TTTT05/10/2018 07:00:00unic40,2080,0050117CordialJun157MRWFilipinoVeteran Male23/3001:15:4201:15:4231,85
    RW25 Mil TTTT05/10/2018 07:00:00unic40,2080,005171MendozaRichard156MRWFilipinoVeteran Male24/3001:16:4701:16:4731,40
    RW25 Mil TTTT05/10/2018 07:00:00unic40,2080,0052108EleosidaTeddy155MRWFilipinoMaster Male8/1301:17:0201:17:0231,30
    RW25 Mil TTTT05/10/2018 07:00:00unic40,2080,005358SweertsWillem154MRWNetherlandsVeteran Male25/3001:17:3401:17:3431,09
    RW25 Mil TTTT05/10/2018 07:00:00unic40,2080,005483SchaeferColin153MRWAmericanOpen Male18/2001:19:4401:19:4430,24
    RW25 Mil TTTT05/10/2018 07:00:00unic40,2080,005528EllaBenedict152MRWFilipinoMaster Male9/1301:20:0101:20:0130,14
    RW25 Mil TTTT05/10/2018 07:00:00unic40,2080,005657WeidnerThomas151MRWGermanVeteran Male26/3001:20:2001:20:2030,02
    RW25 Mil TTTT05/10/2018 07:00:00unic40,2080,005770LandoLuigi150MRWItalianSenior Male3/301:20:2801:20:2829,97
    RW25 Mil TTTT05/10/2018 07:00:00unic40,2080,0058201CalvertJillFRWBritishOpen Female2/301:21:1701:21:1729,66
    RW25 Mil TTTT05/10/2018 07:00:00unic40,2080,005981JavierJessie149MRWFilipinoMaster Male10/1301:22:0601:22:0629,37
    RW25 Mil TTTT05/10/2018 07:00:00unic40,2080,0060100AraujoMaria199FRWItalianMaster Female1/301:22:1901:22:1929,30
    RW25 Mil TTTT05/10/2018 07:00:00unic40,2080,006162CrepaldiGustavo148MRWBrazilianVeteran Male27/3001:22:2701:22:2729,25
    RW25 Mil TTTT05/10/2018 07:00:00unic40,2080,006285JangGyoungoh147MRWKoreanMaster Male11/1301:23:0301:23:0329,04
    RW25 Mil TTTT05/10/2018 07:00:00unic40,2080,0063202RahimaldeenSarahFRWSaudiOpen Female3/301:24:2201:24:2228,58
    RW25 Mil TTTT05/10/2018 07:00:00unic40,2080,006442GuptaVikas146MRWIndianVeteran Male28/3001:24:3501:24:3528,51
    RW25 Mil TTTT05/10/2018 07:00:00unic40,2080,006568PetkovskiDragan145MRWCroatiaMaster Male12/1301:28:1901:28:1927,30
    RW25 Mil TTTT05/10/2018 07:00:00unic40,2080,006627AlKilaniAlaa Eddin144MRWJordanianOpen Male19/2001:28:5201:28:5227,14
    RW25 Mil TTTT05/10/2018 07:00:00unic40,2080,006743SatputeSanjay143MRWIndianOpen Male20/2001:29:0701:29:0727,06
    RW25 Mil TTTT05/10/2018 07:00:00unic40,2080,006888AbreuMarcus142MRWBrazilianMaster Male13/1301:32:0501:32:0526,19
    RW25 Mil TTTT05/10/2018 07:00:00unic40,2080,006966BurkeCarmel198FRWIrishMaster Female2/301:32:1201:32:1226,15
    RW25 Mil TTTT05/10/2018 07:00:00unic40,2080,0070213AlShamekhAbdullahMRWSaudiVeteran Male29/3001:42:0001:42:0023,64
    RW25 Mil TTTT05/10/2018 07:00:00unic40,2080,007176ArmanaziAsaad141MRWCanadianVeteran Male30/3001:52:5001:52:5021,37
    RW25 Mil TTTT05/10/2018 07:00:00unic40,2080,007213EdwardsKim197FRWAustralianMaster Female3/302:04:2902:04:2919,37
    idracetypedateroute2.894,40
    km
    5760
    dislivello
    72
    n
    BIDFamily NameNamescoregenderteamNationalityCategoryPos.Cat.TimeReal
    time
    Average
    km/hr
von Skwarczinsky ClemensAljarallah OmarDela Rosa MichaelForero YezithKuba JiriMorris DavidGankema JeroenArafah AshrafGicana RamilSunga JaimeAlves CarlosMcLean JohnJohnson DavidDolleman RogierSkarupa TomaszDetomal BernardTabbal Floren PalCalago ErwinLando EdoardoCaceres Marvin
Altavas Jose CortesWhite AndrewMarinas Herbert PaulOca EdilbertoMaican SorinMarinas FlorieGarth MichaelTolentino WilliamCordial JunMendoza RichardEleosida TeddySweerts WillemSchaefer ColinElla BenedictLando LuigiJavier JessieAraujo MariaGupta VikasPetkovski DraganSatpute Sanjay
Burke CarmelArmanazi Asaad

25 Mil TT Athletes TEAM (first 200)

FIND ATHLETES races saved
find results also athletes others team
Fam.Name: Name:
rem: to insert Family name (It is simply a part of word)

FIND TEAM Races saved
You can find the result of others team
TEAM: RACE: ROUTE:
rem: to insert one team (It is simply a part of word)


home